createdAt,value
2023-05-11T00:00:40.123Z,99271.59
2023-05-11T00:03:06.886Z,99282.63
2023-05-11T00:05:33.646Z,99276.59
2023-05-11T00:08:00.307Z,99283.00
2023-05-11T00:10:28.528Z,99275.38
2023-05-11T00:12:55.546Z,99278.56
2023-05-11T00:15:22.120Z,99276.00
2023-05-11T00:17:48.706Z,99275.78
2023-05-11T00:20:15.380Z,99277.28
2023-05-11T00:22:44.056Z,99271.72
2023-05-11T00:25:11.445Z,99281.22
2023-05-11T00:27:37.979Z,99275.81
2023-05-11T00:30:05.014Z,99273.72
2023-05-11T00:32:31.661Z,99275.44
2023-05-11T00:34:58.443Z,99276.41
2023-05-11T00:37:26.078Z,99278.84
2023-05-11T00:39:52.892Z,99272.41
2023-05-11T00:42:19.457Z,99267.00
2023-05-11T00:44:46.019Z,99273.81
2023-05-11T00:47:12.701Z,99267.91
2023-05-11T00:49:39.994Z,99275.00
2023-05-11T00:52:06.746Z,99268.00
2023-05-11T00:54:33.387Z,99265.28
2023-05-11T00:56:59.984Z,99268.81
2023-05-11T00:59:27.455Z,99267.72
2023-05-11T01:01:54.250Z,99266.41
2023-05-11T01:04:21.001Z,99273.94
2023-05-11T01:07:06.011Z,99269.59
2023-05-11T01:09:47.926Z,99269.03
2023-05-11T01:12:25.926Z,99257.38
2023-05-11T01:15:06.430Z,99270.63
2023-05-11T01:18:01.427Z,99266.31
2023-05-11T01:20:30.414Z,99263.00
2023-05-11T01:23:32.438Z,99267.91
2023-05-11T01:26:36.503Z,99270.72
2023-05-11T01:29:31.130Z,99262.59
2023-05-11T01:32:00.005Z,99258.19
2023-05-11T01:34:32.064Z,99256.28
2023-05-11T01:37:00.821Z,99261.00
2023-05-11T01:39:42.746Z,99263.63
2023-05-11T01:42:10.791Z,99256.59
2023-05-11T01:44:43.551Z,99256.41
2023-05-11T01:47:12.069Z,99262.59
2023-05-11T01:49:40.733Z,99261.81
2023-05-11T01:52:09.938Z,99261.81
2023-05-11T01:54:38.672Z,99262.59
2023-05-11T01:57:06.535Z,99257.19
2023-05-11T01:59:34.154Z,99259.59
2023-05-11T02:02:02.259Z,99258.00
2023-05-11T02:04:30.218Z,99258.00
2023-05-11T02:06:59.046Z,99277.44
2023-05-11T02:09:26.718Z,99262.00
2023-05-11T02:11:56.220Z,99255.00
2023-05-11T02:14:24.718Z,99264.59
2023-05-11T02:16:52.851Z,99260.78
2023-05-11T02:19:21.113Z,99266.50
2023-05-11T02:21:49.817Z,99259.97
2023-05-11T02:24:18.230Z,99260.19
2023-05-11T02:26:44.809Z,99260.69
2023-05-11T02:29:11.653Z,99264.97
2023-05-11T02:31:44.323Z,99263.38
2023-05-11T02:34:21.129Z,99256.16
2023-05-11T02:36:54.518Z,99261.56
2023-05-11T02:39:22.061Z,99262.50
2023-05-11T02:41:57.080Z,99259.81
2023-05-11T02:44:31.591Z,99255.00
2023-05-11T02:47:02.549Z,99263.63
2023-05-11T02:49:31.890Z,99256.59
2023-05-11T02:52:01.522Z,99264.19
2023-05-11T02:54:29.397Z,99261.59
2023-05-11T02:56:57.431Z,99261.91
2023-05-11T02:59:25.223Z,99260.00
2023-05-11T03:01:52.843Z,99260.00
2023-05-11T03:04:19.677Z,99261.59
2023-05-11T03:06:46.366Z,99265.41
2023-05-11T03:09:13.145Z,99258.41
2023-05-11T03:11:40.711Z,99264.81
2023-05-11T03:14:07.621Z,99261.00
2023-05-11T03:16:35.032Z,99259.88
2023-05-11T03:19:02.700Z,99257.19
2023-05-11T03:21:29.481Z,99259.38
2023-05-11T03:23:57.123Z,99263.41
2023-05-11T03:26:27.386Z,99260.41
2023-05-11T03:28:55.654Z,99264.72
2023-05-11T03:31:22.471Z,99259.31
2023-05-11T03:33:49.160Z,99257.38
2023-05-11T03:36:16.021Z,99260.41
2023-05-11T03:38:45.197Z,99258.78
2023-05-11T03:41:15.869Z,99259.59
2023-05-11T03:43:45.203Z,99257.19
2023-05-11T03:46:12.364Z,99254.78
2023-05-11T03:48:40.580Z,99258.78
2023-05-11T03:51:07.443Z,99253.28
2023-05-11T03:53:34.164Z,99252.06
2023-05-11T03:56:01.754Z,99249.56
2023-05-11T03:58:28.784Z,99248.13
2023-05-11T04:00:55.496Z,99257.06
2023-05-11T04:03:22.233Z,99248.75
2023-05-11T04:05:48.980Z,99256.38
2023-05-11T04:08:15.676Z,99253.06
2023-05-11T04:10:42.251Z,99250.56
2023-05-11T04:13:08.828Z,99260.78
2023-05-11T04:15:37.440Z,99255.56
2023-05-11T04:18:04.192Z,99255.44
2023-05-11T04:20:30.788Z,99264.56
2023-05-11T04:22:57.352Z,99266.75
2023-05-11T04:25:23.911Z,99257.94
2023-05-11T04:27:50.407Z,99255.72
2023-05-11T04:30:17.414Z,99258.16
2023-05-11T04:32:44.339Z,99260.53
2023-05-11T04:35:10.940Z,99265.16
2023-05-11T04:37:37.618Z,99264.06
2023-05-11T04:40:04.578Z,99265.94
2023-05-11T04:42:31.436Z,99266.75
2023-05-11T04:44:57.964Z,99264.56
2023-05-11T04:47:24.467Z,99276.47
2023-05-11T04:49:51.994Z,99271.56
2023-05-11T04:52:18.643Z,99266.19
2023-05-11T04:54:45.265Z,99268.25
2023-05-11T04:57:11.787Z,99262.47
2023-05-11T04:59:38.379Z,99265.69
2023-05-11T05:02:05.028Z,99269.38
2023-05-11T05:04:32.559Z,99268.59
2023-05-11T05:07:00.931Z,99266.03
2023-05-11T05:09:27.486Z,99261.59
2023-05-11T05:11:54.321Z,99264.44
2023-05-11T05:14:20.888Z,99271.81
2023-05-11T05:16:47.494Z,99264.44
2023-05-11T05:19:14.114Z,99279.59
2023-05-11T05:21:41.207Z,99277.47
2023-05-11T05:24:11.235Z,99280.94
2023-05-11T05:26:37.948Z,99285.66
2023-05-11T05:29:05.687Z,99277.59
2023-05-11T05:31:32.477Z,99279.47
2023-05-11T05:33:59.304Z,99284.13
2023-05-11T05:36:26.044Z,99291.38
2023-05-11T05:38:52.630Z,99287.66
2023-05-11T05:41:19.336Z,99293.53
2023-05-11T05:43:46.128Z,99295.72
2023-05-11T05:46:12.795Z,99305.88
2023-05-11T05:48:39.343Z,99296.75
2023-05-11T05:51:05.967Z,99299.84
2023-05-11T05:53:32.730Z,99298.44
2023-05-11T05:55:59.475Z,99307.91
2023-05-11T05:58:26.031Z,99308.00
2023-05-11T06:00:52.787Z,99299.56
2023-05-11T06:03:19.513Z,99304.25
2023-05-11T06:05:46.162Z,99310.34
2023-05-11T06:08:12.779Z,99316.78
2023-05-11T06:10:39.512Z,99312.16
2023-05-11T06:13:08.160Z,99314.03
2023-05-11T06:15:34.883Z,99314.25
2023-05-11T06:18:01.470Z,99314.53
2023-05-11T06:20:28.058Z,99314.16
2023-05-11T06:22:54.989Z,99314.88
2023-05-11T06:25:21.692Z,99318.69
2023-05-11T06:27:48.303Z,99314.53
2023-05-11T06:30:14.969Z,99320.06
2023-05-11T06:32:41.486Z,99331.63
2023-05-11T06:35:08.445Z,99319.44
2023-05-11T06:37:35.583Z,99324.72
2023-05-11T06:40:02.133Z,99319.94
2023-05-11T06:42:28.783Z,99319.91
2023-05-11T06:44:55.542Z,99316.09
2023-05-11T06:47:22.265Z,99322.00
2023-05-11T06:49:49.023Z,99317.97
2023-05-11T06:52:15.630Z,99323.50
2023-05-11T06:54:42.236Z,99327.44
2023-05-11T06:57:08.788Z,99335.81
2023-05-11T06:59:35.336Z,99330.22
2023-05-11T07:02:01.901Z,99335.81
2023-05-11T07:04:29.866Z,99332.25
2023-05-11T07:06:56.591Z,99326.50
2023-05-11T07:09:23.102Z,99336.41
2023-05-11T07:11:51.143Z,99327.94
2023-05-11T07:14:17.794Z,99331.03
2023-05-11T07:16:44.680Z,99329.09
2023-05-11T07:19:11.287Z,99333.44
2023-05-11T07:21:37.959Z,99339.06
2023-05-11T07:24:04.786Z,99334.00
2023-05-11T07:26:31.465Z,99330.53
2023-05-11T07:28:58.037Z,99325.47
2023-05-11T07:31:24.629Z,99331.19
2023-05-11T07:33:51.330Z,99335.81
2023-05-11T07:36:18.437Z,99341.09
2023-05-11T07:38:44.946Z,99334.28
2023-05-11T07:41:12.620Z,99335.09
2023-05-11T07:43:39.407Z,99328.72
2023-05-11T07:46:06.347Z,99334.44
2023-05-11T07:48:32.933Z,99337.00
2023-05-11T07:51:00.167Z,99336.94
2023-05-11T07:53:26.768Z,99331.66
2023-05-11T07:55:53.294Z,99329.28
2023-05-11T07:58:19.877Z,99340.94
2023-05-11T08:00:46.424Z,99333.41
2023-05-11T08:03:13.278Z,99325.78
2023-05-11T08:05:39.963Z,99325.66
2023-05-11T08:08:06.589Z,99330.13
2023-05-11T08:10:33.158Z,99331.06
2023-05-11T08:12:59.705Z,99330.00
2023-05-11T08:15:26.415Z,99330.00
2023-05-11T08:17:53.410Z,99320.38
2023-05-11T08:20:20.092Z,99321.03
2023-05-11T08:22:47.003Z,99324.88
2023-05-11T08:25:13.861Z,99322.81
2023-05-11T08:27:40.571Z,99328.56
2023-05-11T08:30:11.330Z,99322.66
2023-05-11T08:32:54.566Z,99326.78
2023-05-11T08:35:25.029Z,99331.88
2023-05-11T08:37:51.657Z,99330.28
2023-05-11T08:40:20.316Z,99329.31
2023-05-11T08:42:49.550Z,99327.09
2023-05-11T08:45:18.034Z,99328.38
2023-05-11T08:47:45.624Z,99328.38
2023-05-11T08:50:12.702Z,99319.78
2023-05-11T08:52:40.661Z,99318.97
2023-05-11T08:55:08.511Z,99318.09
2023-05-11T08:57:35.992Z,99323.31
2023-05-11T09:00:04.554Z,99311.94
2023-05-11T09:02:31.861Z,99322.44
2023-05-11T09:05:00.057Z,99333.00
2023-05-11T09:07:28.435Z,99326.59
2023-05-11T09:09:55.027Z,99322.69
2023-05-11T09:12:26.048Z,99328.72
2023-05-11T09:14:52.935Z,99322.22
2023-05-11T09:17:19.518Z,99314.25
2023-05-11T09:20:07.724Z,99325.59
2023-05-11T09:22:40.612Z,99322.09
2023-05-11T09:25:07.735Z,99319.19
2023-05-11T09:27:34.621Z,99316.63
2023-05-11T09:30:23.222Z,99320.16
2023-05-11T09:33:01.169Z,99316.31
2023-05-11T09:35:29.164Z,99303.81
2023-05-11T09:38:12.702Z,99316.78
2023-05-11T09:40:43.504Z,99310.72
2023-05-11T09:43:20.207Z,99315.06
2023-05-11T09:45:48.760Z,99316.66
2023-05-11T09:48:21.367Z,99313.94
2023-05-11T09:50:48.985Z,99312.44
2023-05-11T09:53:15.960Z,99303.97
2023-05-11T09:55:53.564Z,99308.13
2023-05-11T09:58:20.099Z,99312.75
2023-05-11T10:00:56.486Z,99308.50
2023-05-11T10:03:25.627Z,99296.13
2023-05-11T10:06:00.519Z,99302.34
2023-05-11T10:08:34.391Z,99293.25
2023-05-11T10:11:02.887Z,99296.59
2023-05-11T10:13:32.145Z,99296.72
2023-05-11T10:16:00.450Z,99292.13
2023-05-11T10:18:27.287Z,99293.41
2023-05-11T10:20:54.886Z,99297.34
2023-05-11T10:23:21.852Z,99287.38
2023-05-11T10:25:49.076Z,99296.03
2023-05-11T10:28:16.214Z,99276.44
2023-05-11T10:30:43.248Z,99282.25
2023-05-11T10:33:11.016Z,99285.84
2023-05-11T10:35:38.857Z,99278.13
2023-05-11T10:38:06.714Z,99288.59
2023-05-11T10:40:43.085Z,99278.50
2023-05-11T10:43:42.517Z,99279.44
2023-05-11T10:46:35.029Z,99270.91
2023-05-11T10:49:52.149Z,99271.97
2023-05-11T10:52:48.524Z,99268.84
2023-05-11T10:55:34.509Z,99271.63
2023-05-11T10:58:10.739Z,99271.31
2023-05-11T11:01:18.532Z,99260.28
2023-05-11T11:03:57.851Z,99257.78
2023-05-11T11:06:24.721Z,99263.03
2023-05-11T11:09:03.430Z,99261.06
2023-05-11T11:11:33.422Z,99259.16
2023-05-11T11:14:03.753Z,99253.00
2023-05-11T11:16:30.991Z,99252.09
2023-05-11T11:19:31.529Z,99245.28
2023-05-11T11:22:01.299Z,99247.66
2023-05-11T11:24:46.899Z,99252.22
2023-05-11T11:27:14.648Z,99249.16
2023-05-11T11:29:41.522Z,99244.72
2023-05-11T11:32:20.362Z,99247.56
2023-05-11T11:34:47.968Z,99246.50
2023-05-11T11:37:17.938Z,99232.66
2023-05-11T11:39:44.825Z,99230.47
2023-05-11T11:42:19.188Z,99225.81
2023-05-11T11:44:46.886Z,99227.50
2023-05-11T11:47:23.237Z,99224.91
2023-05-11T11:49:53.303Z,99223.88
2023-05-11T11:52:29.080Z,99224.56
2023-05-11T11:54:57.149Z,99222.09
2023-05-11T11:57:32.700Z,99220.91
2023-05-11T12:00:05.787Z,99217.50
2023-05-11T12:02:33.543Z,99230.03
2023-05-11T12:05:04.861Z,99222.16
2023-05-11T12:07:33.643Z,99223.78
2023-05-11T12:10:04.163Z,99229.34
2023-05-11T12:12:31.306Z,99224.78
2023-05-11T12:14:59.929Z,99215.69
2023-05-11T12:17:29.542Z,99216.25
2023-05-11T12:20:12.453Z,99201.06
2023-05-11T12:22:39.177Z,99198.31
2023-05-11T12:25:06.953Z,99206.69
2023-05-11T12:27:33.974Z,99208.28
2023-05-11T12:30:00.546Z,99203.41
2023-05-11T12:32:29.014Z,99212.34
2023-05-11T12:35:04.228Z,99198.88
2023-05-11T12:37:31.528Z,99195.53
2023-05-11T12:39:59.293Z,99194.63
2023-05-11T12:42:26.733Z,99192.78
2023-05-11T12:44:54.400Z,99182.63
2023-05-11T12:47:21.158Z,99196.66
2023-05-11T12:49:47.781Z,99185.81
2023-05-11T12:52:14.340Z,99180.34
2023-05-11T12:54:48.051Z,99186.25
2023-05-11T12:57:31.608Z,99177.72
2023-05-11T13:00:16.804Z,99174.16
2023-05-11T13:02:54.736Z,99172.78
2023-05-11T13:05:26.131Z,99173.56
2023-05-11T13:07:59.051Z,99162.72
2023-05-11T13:10:28.671Z,99164.47
2023-05-11T13:12:56.192Z,99163.16
2023-05-11T13:15:24.536Z,99161.91
2023-05-11T13:17:59.266Z,99156.22
2023-05-11T13:20:32.398Z,99159.88
2023-05-11T13:23:08.016Z,99162.56
2023-05-11T13:25:51.851Z,99161.84
2023-05-11T13:28:20.091Z,99162.13
2023-05-11T13:30:47.194Z,99158.03
2023-05-11T13:33:13.910Z,99153.72
2023-05-11T13:35:41.751Z,99146.22
2023-05-11T13:38:12.374Z,99146.47
2023-05-11T13:40:39.551Z,99150.81
2023-05-11T13:43:06.567Z,99146.91
2023-05-11T13:45:33.233Z,99138.00
2023-05-11T13:47:59.813Z,99137.28
2023-05-11T13:50:26.833Z,99127.25
2023-05-11T13:52:54.055Z,99127.31
2023-05-11T13:55:21.111Z,99125.38
2023-05-11T13:57:48.072Z,99127.94
2023-05-11T14:00:15.258Z,99127.06
2023-05-11T14:02:41.968Z,99128.06
2023-05-11T14:05:09.216Z,99119.09
2023-05-11T14:07:47.189Z,99114.78
2023-05-11T14:10:16.315Z,99114.34
2023-05-11T14:12:43.328Z,99116.25
2023-05-11T14:15:10.646Z,99110.91
2023-05-11T14:17:37.515Z,99112.47
2023-05-11T14:20:06.119Z,99109.19
2023-05-11T14:22:32.692Z,99112.03
2023-05-11T14:24:59.289Z,99112.19
2023-05-11T14:27:25.874Z,99108.88
2023-05-11T14:29:52.467Z,99105.91
2023-05-11T14:32:19.520Z,99106.41
2023-05-11T14:34:46.939Z,99103.59
2023-05-11T14:37:13.817Z,99096.59
2023-05-11T14:39:41.441Z,99106.09
2023-05-11T14:42:08.838Z,99100.78
2023-05-11T14:44:35.568Z,99100.66
2023-05-11T14:47:02.220Z,99098.25
2023-05-11T14:49:28.889Z,99089.63
2023-05-11T14:51:56.649Z,99086.50
2023-05-11T14:54:23.385Z,99088.41
2023-05-11T14:56:54.056Z,99080.91
2023-05-11T14:59:22.213Z,99082.06
2023-05-11T15:01:49.504Z,99072.34
2023-05-11T15:04:16.917Z,99060.91
2023-05-11T15:06:44.093Z,99077.66
2023-05-11T15:09:10.855Z,99082.09
2023-05-11T15:11:37.567Z,99071.94
2023-05-11T15:14:06.013Z,99071.81
2023-05-11T15:16:32.953Z,99075.63
2023-05-11T15:19:00.123Z,99074.81
2023-05-11T15:21:27.390Z,99068.19
2023-05-11T15:23:54.344Z,99079.16
2023-05-11T15:26:22.160Z,99092.16
2023-05-11T15:28:48.772Z,99096.19
2023-05-11T15:31:15.520Z,99106.94
2023-05-11T15:33:42.578Z,99117.41
2023-05-11T15:36:13.972Z,99106.13
2023-05-11T15:38:41.245Z,99110.22
2023-05-11T15:41:08.011Z,99111.13
2023-05-11T15:43:35.272Z,99122.03
2023-05-11T15:46:03.770Z,99115.13
2023-05-11T15:48:30.680Z,99132.81
2023-05-11T15:50:59.737Z,99126.75
2023-05-11T15:53:27.008Z,99126.81
2023-05-11T15:55:55.393Z,99119.34
2023-05-11T15:58:22.257Z,99130.41
2023-05-11T16:00:49.166Z,99121.56
2023-05-11T16:03:16.498Z,99113.09
2023-05-11T16:05:43.312Z,99125.22
2023-05-11T16:08:09.884Z,99124.66
2023-05-11T16:10:36.443Z,99129.56
2023-05-11T16:13:02.998Z,99128.41
2023-05-11T16:15:31.254Z,99131.59
2023-05-11T16:17:58.510Z,99127.00
2023-05-11T16:20:25.331Z,99121.38
2023-05-11T16:22:51.933Z,99117.53
2023-05-11T16:25:18.668Z,99119.75
2023-05-11T16:27:45.193Z,99121.38
2023-05-11T16:30:23.240Z,99114.47
2023-05-11T16:32:51.610Z,99108.06
2023-05-11T16:35:18.509Z,99119.38
2023-05-11T16:37:45.081Z,99110.44
2023-05-11T16:40:11.834Z,99105.28
2023-05-11T16:42:38.414Z,99114.66
2023-05-11T16:45:05.484Z,99111.75
2023-05-11T16:47:32.092Z,99119.13
2023-05-11T16:49:58.677Z,99117.06
2023-05-11T16:52:25.416Z,99116.69
2023-05-11T16:54:52.864Z,99108.63
2023-05-11T16:57:19.390Z,99110.69
2023-05-11T16:59:45.982Z,99114.47
2023-05-11T17:02:12.683Z,99118.56
2023-05-11T17:04:39.214Z,99110.38
2023-05-11T17:07:08.604Z,99121.75
2023-05-11T17:09:35.149Z,99112.41
2023-05-11T17:12:07.024Z,99114.31
2023-05-11T17:14:33.589Z,99119.06
2023-05-11T17:17:00.112Z,99117.69
2023-05-11T17:19:26.658Z,99116.91
2023-05-11T17:21:53.237Z,99106.22
2023-05-11T17:24:19.838Z,99113.03
2023-05-11T17:26:48.432Z,99117.03
2023-05-11T17:29:16.476Z,99118.03
2023-05-11T17:31:43.333Z,99120.53
2023-05-11T17:34:10.673Z,99117.34
2023-05-11T17:36:37.422Z,99112.91
2023-05-11T17:39:05.084Z,99121.75
2023-05-11T17:41:32.012Z,99122.00
2023-05-11T17:43:58.549Z,99125.72
2023-05-11T17:46:25.565Z,99130.72
2023-05-11T17:48:53.027Z,99133.31
2023-05-11T17:51:20.576Z,99120.34
2023-05-11T17:53:47.376Z,99126.84
2023-05-11T17:56:13.991Z,99118.75
2023-05-11T17:58:40.607Z,99118.38
2023-05-11T18:01:12.610Z,99127.38
2023-05-11T18:03:39.564Z,99121.19
2023-05-11T18:06:06.961Z,99125.19
2023-05-11T18:08:33.616Z,99132.69
2023-05-11T18:11:00.163Z,99129.97
2023-05-11T18:13:28.676Z,99125.78
2023-05-11T18:16:00.847Z,99135.19
2023-05-11T18:18:27.486Z,99130.78
2023-05-11T18:20:54.199Z,99136.41
2023-05-11T18:23:20.706Z,99142.06
2023-05-11T18:25:47.244Z,99139.22
2023-05-11T18:28:13.788Z,99145.31
2023-05-11T18:30:40.425Z,99145.53
2023-05-11T18:33:07.105Z,99152.31
2023-05-11T18:35:33.829Z,99148.22
2023-05-11T18:38:02.286Z,99147.63
2023-05-11T18:40:28.815Z,99148.09
2023-05-11T18:42:56.217Z,99152.63
2023-05-11T18:45:22.988Z,99151.69
2023-05-11T18:47:50.314Z,99152.38
2023-05-11T18:50:17.081Z,99161.63
2023-05-11T18:52:43.836Z,99161.63
2023-05-11T18:55:10.379Z,99157.31
2023-05-11T18:57:39.414Z,99161.84
2023-05-11T19:00:07.347Z,99169.53
2023-05-11T19:02:34.076Z,99167.00
2023-05-11T19:05:01.295Z,99163.34
2023-05-11T19:07:28.562Z,99174.09
2023-05-11T19:09:55.531Z,99174.44
2023-05-11T19:12:22.479Z,99179.38
2023-05-11T19:14:49.065Z,99169.63
2023-05-11T19:17:15.641Z,99176.19
2023-05-11T19:19:42.194Z,99174.50
2023-05-11T19:22:09.305Z,99184.56
2023-05-11T19:24:36.176Z,99177.53
2023-05-11T19:27:07.801Z,99179.13
2023-05-11T19:29:35.484Z,99180.91
2023-05-11T19:32:02.537Z,99180.44
2023-05-11T19:34:29.158Z,99186.19
2023-05-11T19:36:55.718Z,99180.63
2023-05-11T19:39:22.344Z,99194.25
2023-05-11T19:41:48.958Z,99192.50
2023-05-11T19:44:15.448Z,99200.97
2023-05-11T19:46:46.541Z,99201.63
2023-05-11T19:49:15.069Z,99198.44
2023-05-11T19:51:41.927Z,99202.63
2023-05-11T19:54:08.525Z,99198.94
2023-05-11T19:56:35.133Z,99193.69
2023-05-11T19:59:02.712Z,99203.31
2023-05-11T20:01:29.297Z,99202.34
2023-05-11T20:03:56.301Z,99198.19
2023-05-11T20:06:23.341Z,99201.09
2023-05-11T20:08:51.574Z,99200.81
2023-05-11T20:11:18.348Z,99199.69
2023-05-11T20:13:45.266Z,99207.19
2023-05-11T20:16:11.841Z,99209.28
2023-05-11T20:18:38.560Z,99213.78
2023-05-11T20:21:05.408Z,99213.28
2023-05-11T20:23:31.993Z,99215.72
2023-05-11T20:25:58.536Z,99216.31
2023-05-11T20:28:27.377Z,99223.22
2023-05-11T20:30:56.256Z,99218.44
2023-05-11T20:35:53.484Z,99219.38
2023-05-11T20:38:20.487Z,99215.25
2023-05-11T20:40:47.072Z,99225.78
2023-05-11T20:43:14.771Z,99219.22
2023-05-11T20:45:42.323Z,99213.47
2023-05-11T20:48:09.108Z,99210.88
2023-05-11T20:50:35.758Z,99217.13
2023-05-11T20:53:02.399Z,99221.44
2023-05-11T20:55:29.022Z,99214.13
2023-05-11T20:57:55.602Z,99218.72
2023-05-11T21:00:22.846Z,99219.03
2023-05-11T21:02:49.797Z,99216.66
2023-05-11T21:05:16.660Z,99212.34
2023-05-11T21:07:43.296Z,99212.66
2023-05-11T21:10:12.563Z,99218.56
2023-05-11T21:12:39.258Z,99215.84
2023-05-11T21:15:07.356Z,99217.13
2023-05-11T21:17:34.467Z,99218.25
2023-05-11T21:20:05.015Z,99213.31
2023-05-11T21:22:36.463Z,99214.72
2023-05-11T21:25:04.133Z,99211.22
2023-05-11T21:27:31.399Z,99223.22
2023-05-11T21:29:57.988Z,99220.03
2023-05-11T21:32:24.616Z,99210.94
2023-05-11T21:34:51.198Z,99217.16
2023-05-11T21:37:20.273Z,99215.25
2023-05-11T21:39:50.400Z,99212.03
2023-05-11T21:42:17.225Z,99218.09
2023-05-11T21:44:43.804Z,99212.66
2023-05-11T21:47:10.679Z,99219.22
2023-05-11T21:49:37.224Z,99214.91
2023-05-11T21:52:04.071Z,99217.63
2023-05-11T21:54:30.680Z,99217.97
2023-05-11T21:56:57.213Z,99217.97
2023-05-11T21:59:26.738Z,99214.78
2023-05-11T22:01:54.870Z,99221.63
2023-05-11T22:04:21.705Z,99227.22
2023-05-11T22:06:48.230Z,99225.16
2023-05-11T22:09:15.157Z,99230.72
2023-05-11T22:11:41.697Z,99239.50
2023-05-11T22:14:08.305Z,99231.03
2023-05-11T22:16:34.844Z,99228.66
2023-05-11T22:19:01.561Z,99236.16
2023-05-11T22:21:28.339Z,99239.16
2023-05-11T22:23:55.316Z,99240.91
2023-05-11T22:26:21.900Z,99244.09
2023-05-11T22:28:48.446Z,99238.50
2023-05-11T22:31:15.018Z,99238.63
2023-05-11T22:33:41.797Z,99241.47
2023-05-11T22:36:08.487Z,99240.50
2023-05-11T22:38:37.548Z,99246.56
2023-05-11T22:41:05.016Z,99253.13
2023-05-11T22:43:31.913Z,99242.91
2023-05-11T22:45:58.608Z,99240.47
2023-05-11T22:48:25.183Z,99247.34
2023-05-11T22:50:51.758Z,99241.13
2023-05-11T22:53:19.958Z,99245.72
2023-05-11T22:55:46.650Z,99249.41
2023-05-11T22:58:13.384Z,99245.88
2023-05-11T23:00:40.166Z,99248.91
2023-05-11T23:03:06.892Z,99250.66
2023-05-11T23:05:33.742Z,99242.34
2023-05-11T23:08:00.505Z,99246.16
2023-05-11T23:10:28.637Z,99248.69
2023-05-11T23:12:55.938Z,99253.16
2023-05-11T23:15:22.613Z,99249.13
2023-05-11T23:17:49.310Z,99243.22
2023-05-11T23:20:16.872Z,99244.97
2023-05-11T23:22:43.607Z,99231.91
2023-05-11T23:25:10.535Z,99245.16
2023-05-11T23:27:37.126Z,99237.81
2023-05-11T23:30:04.014Z,99242.13
2023-05-11T23:32:30.564Z,99239.09
2023-05-11T23:34:57.098Z,99230.97
2023-05-11T23:37:23.865Z,99245.81
2023-05-11T23:39:50.598Z,99236.25
2023-05-11T23:42:17.212Z,99237.66
2023-05-11T23:44:44.157Z,99230.16
2023-05-11T23:47:10.782Z,99242.13
2023-05-11T23:49:37.371Z,99231.59
2023-05-11T23:52:04.261Z,99234.31
2023-05-11T23:54:30.754Z,99234.31
2023-05-11T23:56:57.290Z,99236.69
2023-05-11T23:59:23.897Z,99235.59
